Time;durP1;ratioP1;P1;durP2;ratioP2;P2;SDS_P1;SDS_P2;PMS_P1;PMS_P2;Temp;Humidity;BMP_temperature;BMP_pressure;BME280_temperature;BME280_humidity;BME280_pressure;Samples;Min_cycle;Max_cycle;Signal;HPM_P1;HPM_P2
2020/12/09 00:01:48;;;;;;;28.53;20.63;;;7.20;82.10;;;;;;5010769;28;20041;-84
2020/12/09 00:04:14;;;;;;;28.83;21.37;;;7.20;82.20;;;;;;5021617;28;20037;-83
2020/12/09 00:06:40;;;;;;;29.67;21.10;;;7.10;82.10;;;;;;5009675;28;20046;-83
2020/12/09 00:09:10;;;;;;;28.60;21.40;;;7.10;82.20;;;;;;5004071;28;20033;-84
2020/12/09 00:11:38;;;;;;;31.77;21.83;;;7.10;82.10;;;;;;4972659;28;20078;-83
2020/12/09 00:14:04;;;;;;;27.60;20.47;;;7.10;82.20;;;;;;5009446;28;20133;-83
2020/12/09 00:16:50;;;;;;;31.37;22.20;;;7.10;82.30;;;;;;4996795;28;20065;-83
2020/12/09 00:19:16;;;;;;;32.50;22.53;;;7.00;82.30;;;;;;5010535;28;20037;-83
2020/12/09 00:22:02;;;;;;;25.07;20.23;;;7.00;82.40;;;;;;5014232;28;20051;-84
2020/12/09 00:24:28;;;;;;;32.00;22.00;;;7.00;82.50;;;;;;5012879;28;20038;-84
2020/12/09 00:26:54;;;;;;;28.93;21.17;;;7.00;82.50;;;;;;4996948;28;20038;-83
2020/12/09 00:29:19;;;;;;;30.73;22.40;;;7.00;82.50;;;;;;4991597;28;20040;-83
2020/12/09 00:31:45;;;;;;;36.13;22.83;;;7.00;82.50;;;;;;5025531;28;20034;-82
2020/12/09 00:34:31;;;;;;;37.50;24.33;;;6.90;82.50;;;;;;4993775;28;20041;-82
2020/12/09 00:36:57;;;;;;;32.87;23.13;;;7.00;82.60;;;;;;5024929;28;20434;-81
2020/12/09 00:39:23;;;;;;;31.77;22.47;;;6.90;82.50;;;;;;4988735;28;20463;-82
2020/12/09 00:41:49;;;;;;;32.70;22.73;;;6.90;82.50;;;;;;5000932;28;20088;-83
2020/12/09 00:44:15;;;;;;;33.10;22.67;;;6.90;82.60;;;;;;5011797;28;20054;-82
2020/12/09 00:46:40;;;;;;;35.77;23.23;;;6.90;82.70;;;;;;5033588;28;20040;-82
2020/12/09 00:49:26;;;;;;;31.03;23.67;;;6.90;82.90;;;;;;5006374;28;20046;-83
2020/12/09 00:52:12;;;;;;;34.47;24.30;;;6.90;83.00;;;;;;4981330;28;20045;-84
2020/12/09 00:54:59;;;;;;;36.43;24.37;;;7.00;83.10;;;;;;4984882;28;20072;-83
2020/12/09 00:57:25;;;;;;;36.27;24.80;;;6.90;83.90;;;;;;5001701;28;20049;-84
2020/12/09 01:00:10;;;;;;;33.27;21.73;;;6.90;83.50;;;;;;4997258;28;20046;-83
2020/12/09 01:02:36;;;;;;;33.60;23.90;;;6.90;83.60;;;;;;5009189;28;20037;-83
2020/12/09 01:05:22;;;;;;;37.13;23.50;;;7.00;83.50;;;;;;4986344;28;20509;-83
2020/12/09 01:07:48;;;;;;;34.63;24.13;;;7.00;83.40;;;;;;4994647;28;20044;-83
2020/12/09 01:10:14;;;;;;;33.47;24.87;;;7.00;83.10;;;;;;5014658;28;20030;-84
2020/12/09 01:12:59;;;;;;;34.03;24.47;;;7.00;83.00;;;;;;5014500;28;20038;-84
2020/12/09 01:15:25;;;;;;;38.07;25.57;;;7.00;83.10;;;;;;5030902;28;20038;-84
2020/12/09 01:17:51;;;;;;;36.60;25.10;;;7.00;82.80;;;;;;4984811;28;20115;-82
2020/12/09 01:20:16;;;;;;;35.80;25.57;;;7.00;83.00;;;;;;4996979;28;20044;-82
2020/12/09 01:22:44;;;;;;;35.67;24.73;;;7.00;82.90;;;;;;4972049;28;20052;-82
2020/12/09 01:25:29;;;;;;;33.33;24.07;;;7.00;82.80;;;;;;5011751;28;20073;-82
2020/12/09 01:27:59;;;;;;;33.27;24.00;;;7.00;82.90;;;;;;5009913;28;20049;-82
2020/12/09 01:30:25;;;;;;;34.03;24.30;;;7.00;82.90;;;;;;5012561;28;20036;-82
2020/12/09 01:32:51;;;;;;;31.23;22.90;;;7.10;83.20;;;;;;5011054;28;20046;-82
2020/12/09 01:35:17;;;;;;;34.20;23.57;;;7.00;83.10;;;;;;5032453;28;20038;-82
2020/12/09 01:37:42;;;;;;;34.20;24.20;;;7.10;83.10;;;;;;5010854;28;20088;-82
2020/12/09 01:40:28;;;;;;;33.43;24.07;;;7.10;82.90;;;;;;4999179;28;20069;-83
2020/12/09 01:42:54;;;;;;;33.57;24.47;;;7.10;82.90;;;;;;5019815;28;20816;-84
2020/12/09 01:45:20;;;;;;;35.17;24.90;;;7.10;82.80;;;;;;5021868;28;20042;-81
2020/12/09 01:47:46;;;;;;;33.57;23.67;;;7.10;82.80;;;;;;5015556;28;20038;-82
2020/12/09 01:50:12;;;;;;;38.57;24.10;;;7.10;82.70;;;;;;5003645;28;20100;-82
2020/12/09 01:52:58;;;;;;;32.00;23.10;;;7.10;82.60;;;;;;4989947;28;20053;-83
2020/12/09 01:55:46;;;;;;;32.77;23.07;;;7.10;82.70;;;;;;4985836;28;20050;-83
2020/12/09 01:58:32;;;;;;;34.60;22.53;;;7.10;82.70;;;;;;5002077;28;20045;-83
2020/12/09 02:01:18;;;;;;;32.40;23.67;;;7.10;82.80;;;;;;5020230;28;20053;-83
2020/12/09 02:03:45;;;;;;;36.77;23.23;;;7.10;82.70;;;;;;5002315;28;20105;-83
2020/12/09 02:06:30;;;;;;;32.40;23.27;;;7.10;82.60;;;;;;5006198;28;20060;-83
2020/12/09 02:08:56;;;;;;;36.23;24.60;;;7.10;82.60;;;;;;4989340;28;20494;-83
2020/12/09 02:11:22;;;;;;;33.30;23.07;;;7.10;82.60;;;;;;4997152;28;20026;-83
2020/12/09 02:14:08;;;;;;;37.03;24.13;;;7.20;82.50;;;;;;5007689;28;20165;-83
2020/12/09 02:16:34;;;;;;;34.07;24.00;;;7.10;82.40;;;;;;5014449;28;20061;-82
2020/12/09 02:18:59;;;;;;;32.63;24.00;;;7.20;82.50;;;;;;4993814;28;20065;-83
2020/12/09 02:21:25;;;;;;;32.00;23.57;;;7.10;82.50;;;;;;5014115;28;20038;-83
2020/12/09 02:23:51;;;;;;;32.80;23.73;;;7.10;82.60;;;;;;4996487;28;20449;-83
2020/12/09 02:26:17;;;;;;;35.13;24.47;;;7.20;82.70;;;;;;5014442;28;20029;-83
2020/12/09 02:29:02;;;;;;;35.80;24.00;;;7.20;83.10;;;;;;5000367;28;20076;-82
2020/12/09 02:31:28;;;;;;;36.73;25.13;;;7.20;82.60;;;;;;4992963;28;20093;-82
2020/12/09 02:33:54;;;;;;;36.07;24.97;;;7.30;82.50;;;;;;4993012;28;20058;-83
2020/12/09 02:36:40;;;;;;;34.07;25.17;;;7.20;82.50;;;;;;4997586;28;20042;-82
2020/12/09 02:39:34;;;;;;;33.73;24.73;;;7.20;82.40;;;;;;5005216;28;20049;-82
2020/12/09 02:41:59;;;;;;;;;;;7.20;82.30;;;;;;5011587;28;20111;-83
2020/12/09 02:44:25;;;;;;;32.20;23.60;;;7.20;82.80;;;;;;5030312;28;19921;-82
2020/12/09 02:47:11;;;;;;;36.53;25.97;;;7.30;83.00;;;;;;5002616;28;20503;-82
2020/12/09 02:49:37;;;;;;;37.23;25.33;;;7.20;82.70;;;;;;5012637;28;20034;-83
2020/12/09 02:52:02;;;;;;;35.27;25.83;;;7.20;82.70;;;;;;5000377;28;20034;-83
2020/12/09 02:54:48;;;;;;;37.00;25.83;;;7.20;82.70;;;;;;4997829;28;20057;-83
2020/12/09 02:57:36;;;;;;;37.87;26.30;;;7.20;82.70;;;;;;4988427;28;20056;-83
2020/12/09 03:00:04;;;;;;;36.20;25.33;;;7.20;82.70;;;;;;5017634;28;20064;-83
2020/12/09 03:02:50;;;;;;;33.87;24.50;;;7.20;82.60;;;;;;5012228;28;20065;-82
2020/12/09 03:05:15;;;;;;;38.00;27.30;;;7.20;83.40;;;;;;5025137;28;20041;-81
2020/12/09 03:07:41;;;;;;;36.50;26.67;;;7.20;82.50;;;;;;5002297;28;20064;-81
2020/12/09 03:10:07;;;;;;;38.23;26.37;;;7.20;82.30;;;;;;4993635;28;20029;-82
2020/12/09 03:12:52;;;;;;;36.93;25.80;;;7.20;82.50;;;;;;4981077;28;20041;-81
2020/12/09 03:15:18;;;;;;;37.30;26.53;;;7.20;82.60;;;;;;5009015;28;20374;-82
2020/12/09 03:17:44;;;;;;;42.80;26.97;;;7.20;82.50;;;;;;5013351;28;20039;-81
2020/12/09 03:20:29;;;;;;;39.43;25.63;;;7.20;82.50;;;;;;5016778;28;20065;-82
2020/12/09 03:22:55;;;;;;;40.30;27.57;;;7.20;82.60;;;;;;5028941;28;20029;-82
2020/12/09 03:25:21;;;;;;;44.60;28.97;;;7.20;82.50;;;;;;4996189;28;20046;-82
2020/12/09 03:27:47;;;;;;;39.87;27.13;;;7.20;82.40;;;;;;4994175;28;20490;-82
2020/12/09 03:30:12;;;;;;;41.70;27.03;;;7.20;82.30;;;;;;5004924;28;20077;-82
2020/12/09 03:32:38;;;;;;;54.97;30.00;;;7.30;82.50;;;;;;4996175;28;20040;-82
2020/12/09 03:35:04;;;;;;;49.53;28.87;;;7.20;82.50;;;;;;5014033;28;20036;-82
2020/12/09 03:37:29;;;;;;;39.63;26.87;;;7.20;82.40;;;;;;5026846;28;20034;-81
2020/12/09 03:39:55;;;;;;;45.50;29.00;;;7.20;82.40;;;;;;5009978;28;20034;-81
2020/12/09 03:42:21;;;;;;;43.27;29.90;;;7.30;82.40;;;;;;5015521;28;20133;-81
2020/12/09 03:45:07;;;;;;;39.60;26.80;;;7.20;82.30;;;;;;5000538;28;20046;-82
2020/12/09 03:47:32;;;;;;;38.43;26.97;;;7.20;82.10;;;;;;4994566;28;20040;-82
2020/12/09 03:50:18;;;;;;;41.13;27.47;;;7.20;82.10;;;;;;4988476;28;20048;-82
2020/12/09 03:53:04;;;;;;;36.60;25.37;;;7.10;82.10;;;;;;5007208;28;20045;-82
2020/12/09 03:55:49;;;;;;;38.23;26.33;;;7.10;82.30;;;;;;5008570;28;20058;-81
2020/12/09 03:58:16;;;;;;;40.80;26.37;;;7.10;82.40;;;;;;4980063;28;20050;-81
2020/12/09 04:00:42;;;;;;;37.97;25.97;;;7.10;82.40;;;;;;4986283;28;20161;-82
2020/12/09 04:03:27;;;;;;;36.53;26.03;;;7.10;82.40;;;;;;4981920;28;20072;-81
2020/12/09 04:05:53;;;;;;;60.60;27.97;;;7.10;82.40;;;;;;4990744;28;20038;-82
2020/12/09 04:08:39;;;;;;;84.73;28.83;;;7.10;82.40;;;;;;4995196;28;20072;-81
2020/12/09 04:11:04;;;;;;;39.97;28.20;;;7.10;82.50;;;;;;4997699;28;20038;-82
2020/12/09 04:13:30;;;;;;;40.37;26.47;;;7.10;82.70;;;;;;5015291;28;20048;-82
2020/12/09 04:15:56;;;;;;;40.83;28.53;;;7.20;82.70;;;;;;5014695;28;20037;-82
2020/12/09 04:18:22;;;;;;;70.70;30.63;;;7.10;82.50;;;;;;5014384;28;20037;-82
2020/12/09 04:21:07;;;;;;;38.27;27.17;;;7.10;82.60;;;;;;5009590;28;20069;-82
2020/12/09 04:23:53;;;;;;;43.33;27.67;;;7.10;82.60;;;;;;4982668;28;20108;-82
2020/12/09 04:26:18;;;;;;;42.00;27.87;;;7.10;82.60;;;;;;5006729;28;20045;-82
2020/12/09 04:28:44;;;;;;;43.00;28.97;;;7.10;82.50;;;;;;5021492;28;20045;-82
2020/12/09 04:31:10;;;;;;;43.90;29.10;;;7.00;83.10;;;;;;5007068;28;20077;-82
2020/12/09 04:33:36;;;;;;;45.03;29.77;;;7.10;82.60;;;;;;5008847;28;20081;-81
2020/12/09 04:36:02;;;;;;;46.67;30.60;;;7.10;82.70;;;;;;4965006;28;20046;-81
2020/12/09 04:38:28;;;;;;;45.17;29.80;;;7.10;82.70;;;;;;5008343;28;20041;-82
2020/12/09 04:41:13;;;;;;;49.60;30.37;;;7.10;82.70;;;;;;4996150;28;20038;-82
2020/12/09 04:43:40;;;;;;;48.00;30.20;;;7.10;82.70;;;;;;5008423;28;20046;-82
2020/12/09 04:46:06;;;;;;;49.50;30.93;;;7.10;82.70;;;;;;5044633;28;20037;-83
2020/12/09 04:48:59;;;;;;;51.03;30.53;;;7.10;82.70;;;;;;5006197;28;20044;-82
2020/12/09 04:52:02;;;;;;;51.50;31.65;;;7.10;83.20;;;;;;5011297;28;20041;-82
2020/12/09 04:54:39;;;;;;;45.37;29.67;;;7.10;82.70;;;;;;5011741;28;20040;-83
2020/12/09 04:57:36;;;;;;;55.33;29.70;;;7.00;82.80;;;;;;5004451;28;20045;-83
2020/12/09 05:00:13;;;;;;;49.03;31.53;;;7.00;82.90;;;;;;5025790;28;20048;-83
2020/12/09 05:02:42;;;;;;;84.37;33.83;;;7.00;82.90;;;;;;5014051;28;20105;-82
2020/12/09 05:05:12;;;;;;;47.43;30.30;;;7.00;82.90;;;;;;5012012;28;20105;-83
2020/12/09 05:07:38;;;;;;;53.33;31.70;;;7.00;82.90;;;;;;4980025;28;20026;-82
2020/12/09 05:10:06;;;;;;;60.10;33.63;;;7.00;83.00;;;;;;5012417;28;20124;-81
2020/12/09 05:12:43;;;;;;;47.50;29.00;;;7.00;82.80;;;;;;4998492;28;20037;-82
2020/12/09 05:15:16;;;;;;;145.57;34.47;;;7.00;82.80;;;;;;5011063;28;20034;-82
2020/12/09 05:17:49;;;;;;;48.38;33.00;;;7.10;82.90;;;;;;4991918;28;20053;-82
2020/12/09 05:20:14;;;;;;;53.30;34.03;;;7.10;82.80;;;;;;5023407;28;20451;-81
2020/12/09 05:22:41;;;;;;;49.43;30.37;;;7.00;82.70;;;;;;4991273;28;20042;-81
2020/12/09 05:25:07;;;;;;;51.40;33.37;;;7.10;82.80;;;;;;5008607;28;20048;-81
2020/12/09 05:27:53;;;;;;;50.70;32.23;;;7.10;82.80;;;;;;4994265;28;20049;-81
2020/12/09 05:30:47;;;;;;;53.57;31.77;;;7.10;82.90;;;;;;5010399;28;20295;-83
2020/12/09 05:33:15;;;;;;;50.33;31.63;;;7.10;82.80;;;;;;5022499;28;20034;-81
2020/12/09 05:35:41;;;;;;;46.33;30.93;;;7.10;83.00;;;;;;4966104;28;20027;-83
2020/12/09 05:38:11;;;;;;;50.90;32.43;;;7.10;82.90;;;;;;5023198;28;20080;-83
2020/12/09 05:40:39;;;;;;;47.17;31.33;;;7.10;82.80;;;;;;4984475;28;20030;-83
2020/12/09 05:43:24;;;;;;;52.50;31.77;;;7.20;82.90;;;;;;4976684;28;20083;-83
2020/12/09 05:45:50;;;;;;;50.30;32.20;;;7.20;82.90;;;;;;4994244;28;20035;-83
2020/12/09 05:48:21;;;;;;;51.23;32.10;;;7.20;82.90;;;;;;4979514;28;20042;-84
2020/12/09 05:50:56;;;;;;;48.47;31.53;;;7.20;82.70;;;;;;4981752;28;20030;-84
2020/12/09 05:53:23;;;;;;;48.47;31.67;;;7.20;82.80;;;;;;4999378;28;20049;-82
2020/12/09 05:56:16;;;;;;;49.70;32.07;;;7.20;82.80;;;;;;4971620;28;20048;-83
2020/12/09 05:59:01;;;;;;;50.53;30.80;;;7.20;82.60;;;;;;4967592;28;20129;-84
2020/12/09 06:01:47;;;;;;;52.97;32.60;;;7.30;82.80;;;;;;4976850;28;20383;-84
2020/12/09 06:04:13;;;;;;;53.37;34.10;;;7.20;82.70;;;;;;4959055;28;20036;-83
2020/12/09 06:06:39;;;;;;;59.13;33.80;;;7.30;82.60;;;;;;4988699;28;20038;-84
2020/12/09 06:09:05;;;;;;;55.27;34.53;;;7.20;82.40;;;;;;4963685;28;20043;-84
2020/12/09 06:11:32;;;;;;;50.43;33.43;;;7.20;82.50;;;;;;5002163;28;20032;-84
2020/12/09 06:13:58;;;;;;;52.33;32.37;;;7.30;82.40;;;;;;4988053;28;20054;-84
2020/12/09 06:16:24;;;;;;;53.37;33.50;;;7.20;82.10;;;;;;4995885;28;20060;-83
2020/12/09 06:18:51;;;;;;;59.20;34.77;;;7.20;82.20;;;;;;4968663;28;20453;-84
2020/12/09 06:21:17;;;;;;;55.30;32.80;;;7.20;82.70;;;;;;5001645;28;20086;-84
2020/12/09 06:24:03;;;;;;;54.53;33.47;;;7.20;82.30;;;;;;4975828;28;20047;-83
2020/12/09 06:26:49;;;;;;;54.67;33.53;;;7.20;82.40;;;;;;4974516;28;20046;-83
2020/12/09 06:29:23;;;;;;;51.77;31.97;;;7.20;82.40;;;;;;4987078;28;20056;-83
2020/12/09 06:32:09;;;;;;;56.03;33.73;;;7.20;82.30;;;;;;4984530;28;20101;-83
2020/12/09 06:34:34;;;;;;;59.57;33.67;;;7.20;82.30;;;;;;4981724;28;20034;-84
2020/12/09 06:37:10;;;;;;;50.17;33.87;;;7.20;82.30;;;;;;4977225;28;20061;-83
2020/12/09 06:40:10;;;;;;;54.80;32.50;;;7.20;82.30;;;;;;4983632;28;20053;-83
2020/12/09 06:42:36;;;;;;;52.67;32.53;;;7.30;82.40;;;;;;4997600;28;20048;-83
2020/12/09 06:45:03;;;;;;;56.90;33.07;;;7.20;82.50;;;;;;5014443;28;20502;-84
2020/12/09 06:47:28;;;;;;;54.30;34.13;;;7.20;82.50;;;;;;5008695;28;20068;-83
2020/12/09 06:50:28;;;;;;;53.33;35.03;;;7.20;82.50;;;;;;4996545;28;20114;-83
2020/12/09 06:52:54;;;;;;;52.00;33.30;;;7.20;82.10;;;;;;4991261;28;20025;-82
2020/12/09 06:55:20;;;;;;;57.70;34.60;;;7.20;82.40;;;;;;5006134;28;20052;-82
2020/12/09 06:57:46;;;;;;;60.47;35.93;;;7.20;82.30;;;;;;5011100;28;20050;-82
2020/12/09 07:00:23;;;;;;;65.07;37.10;;;7.20;82.20;;;;;;5013012;28;20038;-82
2020/12/09 07:03:26;;;;;;;66.13;37.03;;;7.20;82.00;;;;;;4997845;28;20048;-82
2020/12/09 07:05:52;;;;;;;64.03;36.87;;;7.10;82.10;;;;;;5001474;28;20041;-81
2020/12/09 07:08:18;;;;;;;74.43;38.70;;;7.10;82.00;;;;;;5008442;28;20158;-82
2020/12/09 07:10:44;;;;;;;74.00;37.50;;;7.00;82.10;;;;;;5014056;28;20078;-82
2020/12/09 07:13:14;;;;;;;63.40;37.83;;;7.00;82.10;;;;;;5005724;28;20070;-82
2020/12/09 07:15:59;;;;;;;69.23;37.33;;;7.10;82.20;;;;;;4991966;28;20081;-82
2020/12/09 07:18:25;;;;;;;61.30;35.50;;;7.00;82.40;;;;;;5002085;28;20045;-83
2020/12/09 07:20:51;;;;;;;59.00;35.27;;;7.00;82.40;;;;;;4994814;28;20045;-83
2020/12/09 07:23:17;;;;;;;62.27;37.23;;;7.00;82.40;;;;;;5005368;28;20092;-83
2020/12/09 07:25:43;;;;;;;65.90;36.70;;;7.10;82.30;;;;;;5012489;28;20436;-82
2020/12/09 07:28:32;;;;;;;62.33;36.87;;;7.00;82.20;;;;;;4996062;28;20057;-82
2020/12/09 07:31:08;;;;;;;63.00;36.83;;;7.00;82.30;;;;;;4973482;28;21196;-82
2020/12/09 07:33:34;;;;;;;58.07;35.30;;;7.00;82.20;;;;;;4979096;28;20050;-82
2020/12/09 07:36:08;;;;;;;56.13;35.70;;;7.00;82.30;;;;;;5015984;28;21557;-83
2020/12/09 07:38:33;;;;;;;58.30;33.97;;;7.00;82.30;;;;;;5002675;28;20470;-82
2020/12/09 07:41:19;;;;;;;60.80;34.57;;;7.00;82.50;;;;;;4977881;28;20052;-82
2020/12/09 07:43:48;;;;;;;62.63;35.33;;;7.00;82.50;;;;;;4996739;28;20054;-82
2020/12/09 07:46:35;;;;;;;68.27;36.60;;;7.00;82.50;;;;;;4990093;28;20046;-83
2020/12/09 07:49:01;;;;;;;60.77;35.83;;;6.90;82.40;;;;;;5001235;28;20033;-83
2020/12/09 07:51:30;;;;;;;58.97;34.23;;;6.90;82.40;;;;;;4984855;28;20049;-83
2020/12/09 07:53:55;;;;;;;62.67;36.50;;;6.90;82.90;;;;;;5014774;28;20033;-84
2020/12/09 07:56:21;;;;;;;64.33;37.20;;;6.90;82.30;;;;;;4991222;28;20132;-84
2020/12/09 07:58:47;;;;;;;70.70;36.77;;;6.90;82.30;;;;;;5005155;28;20038;-84
2020/12/09 08:01:26;;;;;;;68.30;37.87;;;6.90;82.30;;;;;;4965925;28;20133;-84
2020/12/09 08:04:13;;;;;;;74.97;40.33;;;6.90;82.30;;;;;;4978279;28;20044;-84
2020/12/09 08:06:40;;;;;;;69.30;38.57;;;6.90;82.40;;;;;;4978061;28;20041;-85
2020/12/09 08:09:16;;;;;;;71.30;37.73;;;6.90;82.40;;;;;;4987400;28;20390;-83
2020/12/09 08:11:43;;;;;;;76.17;41.40;;;6.90;82.50;;;;;;5006204;28;20087;-85
2020/12/09 08:14:32;;;;;;;71.67;39.90;;;6.90;82.70;;;;;;4992170;28;22008;-84
2020/12/09 08:17:31;;;;;;;72.17;38.10;;;7.00;82.80;;;;;;4973650;28;20054;-82
2020/12/09 08:20:07;;;;;;;76.53;39.57;;;7.00;82.70;;;;;;4984679;28;20756;-84
2020/12/09 08:23:01;;;;;;;73.33;39.17;;;7.00;82.70;;;;;;4987716;28;20425;-82
2020/12/09 08:25:29;;;;;;;72.22;39.45;;;7.10;82.60;;;;;;5017674;28;20069;-83
2020/12/09 08:27:56;;;;;;;75.50;40.03;;;7.10;82.50;;;;;;5002025;28;20033;-83
2020/12/09 08:30:26;;;;;;;68.57;40.20;;;7.10;82.20;;;;;;4997708;28;20049;-85
2020/12/09 08:33:01;;;;;;;73.90;39.00;;;7.10;82.40;;;;;;4995891;28;20037;-83
2020/12/09 08:35:41;;;;;;;72.30;39.53;;;7.10;82.40;;;;;;5015678;28;20877;-83
2020/12/09 08:38:07;;;;;;;68.13;38.27;;;7.10;82.30;;;;;;5010114;28;20030;-83
2020/12/09 08:40:54;;;;;;;72.10;39.03;;;7.10;82.30;;;;;;4999964;28;20136;-83
2020/12/09 08:43:42;;;;;;;69.20;39.33;;;7.10;82.20;;;;;;4997873;28;20058;-84
2020/12/09 08:46:09;;;;;;;69.27;39.43;;;7.10;82.00;;;;;;4990646;28;20536;-85
2020/12/09 08:48:37;;;;;;;69.90;37.77;;;7.10;82.10;;;;;;5023679;28;20053;-84
2020/12/09 08:51:06;;;;;;;66.87;36.40;;;7.10;82.00;;;;;;4992119;28;20461;-86
2020/12/09 08:53:51;;;;;;;64.87;38.00;;;7.20;82.10;;;;;;4997040;28;20072;-84
2020/12/09 08:56:16;;;;;;;70.80;38.63;;;7.20;82.20;;;;;;4986463;28;20030;-83
2020/12/09 08:58:42;;;;;;;73.17;39.57;;;7.20;82.10;;;;;;4991798;28;20034;-82
2020/12/09 09:01:09;;;;;;;64.20;38.27;;;7.20;82.10;;;;;;4980598;28;20045;-83
2020/12/09 09:03:39;;;;;;;65.73;37.13;;;7.30;82.10;;;;;;5004205;28;20128;-83
2020/12/09 09:06:05;;;;;;;73.47;39.70;;;7.40;82.10;;;;;;5002320;28;20045;-86
2020/12/09 09:08:31;;;;;;;72.43;39.83;;;7.40;81.90;;;;;;4998678;28;20034;-84
2020/12/09 09:10:56;;;;;;;69.23;39.77;;;7.40;81.90;;;;;;5015001;28;20029;-83
2020/12/09 09:13:22;;;;;;;67.73;37.93;;;7.40;81.90;;;;;;5014844;28;20133;-83
2020/12/09 09:15:48;;;;;;;67.83;38.50;;;7.40;81.90;;;;;;5011719;28;20042;-85
2020/12/09 09:18:14;;;;;;;64.67;36.87;;;7.50;81.90;;;;;;4973333;28;20041;-84
2020/12/09 09:20:39;;;;;;;61.77;34.10;;;7.50;81.90;;;;;;4995943;28;20120;-84
2020/12/09 09:23:26;;;;;;;56.60;33.77;;;7.60;81.90;;;;;;5008101;28;20053;-85
2020/12/09 09:25:51;;;;;;;60.37;35.37;;;7.60;81.80;;;;;;4980142;28;20161;-85
2020/12/09 09:28:17;;;;;;;60.93;36.10;;;7.70;81.80;;;;;;4961253;28;20089;-84
2020/12/09 09:30:44;;;;;;;66.37;35.13;;;7.70;81.70;;;;;;5009596;28;20105;-84
2020/12/09 09:33:30;;;;;;;65.97;36.33;;;7.70;81.70;;;;;;5012289;28;20054;-84
2020/12/09 09:35:56;;;;;;;60.90;34.93;;;7.80;81.70;;;;;;5010503;28;20042;-84
2020/12/09 09:38:21;;;;;;;73.63;35.17;;;7.80;81.40;;;;;;5014518;28;20025;-83
2020/12/09 09:40:48;;;;;;;58.13;34.43;;;7.80;81.10;;;;;;5012435;28;20045;-84
2020/12/09 09:43:14;;;;;;;75.03;36.67;;;7.90;80.60;;;;;;4996722;28;20058;-84
2020/12/09 09:45:40;;;;;;;68.77;37.33;;;7.90;80.80;;;;;;4977999;28;20091;-83
2020/12/09 09:48:05;;;;;;;91.60;36.50;;;7.80;80.70;;;;;;5013225;28;20046;-82
2020/12/09 09:50:31;;;;;;;61.07;34.60;;;7.80;80.90;;;;;;4984174;28;20120;-83
2020/12/09 09:53:22;;;;;;;70.23;36.30;;;7.80;81.00;;;;;;4999804;28;20909;-84
2020/12/09 09:56:08;;;;;;;67.37;36.53;;;7.80;81.10;;;;;;4987322;28;20172;-82
2020/12/09 09:58:34;;;;;;;62.27;34.57;;;8.00;81.40;;;;;;4980930;28;20057;-83
2020/12/09 10:00:59;;;;;;;66.50;36.70;;;7.90;81.20;;;;;;4993379;28;20090;-83
2020/12/09 10:03:27;;;;;;;73.73;35.03;;;7.90;81.10;;;;;;5009238;28;20503;-84
2020/12/09 10:05:52;;;;;;;59.27;35.17;;;7.90;80.80;;;;;;4993852;28;20042;-83
2020/12/09 10:08:42;;;;;;;61.43;34.27;;;7.80;80.40;;;;;;4984832;28;20077;-84
2020/12/09 10:11:28;;;;;;;65.33;34.37;;;7.90;80.80;;;;;;4970327;28;20042;-84
2020/12/09 10:14:14;;;;;;;82.67;35.43;;;7.90;81.40;;;;;;4983243;28;20045;-84
2020/12/09 10:16:42;;;;;;;67.17;37.57;;;7.90;80.70;;;;;;4997291;28;20053;-83
2020/12/09 10:19:28;;;;;;;60.40;33.77;;;7.90;80.40;;;;;;4985285;28;20061;-82
2020/12/09 10:21:54;;;;;;;65.17;35.90;;;7.90;80.80;;;;;;4996759;28;20769;-83
2020/12/09 10:24:21;;;;;;;76.13;38.23;;;7.80;80.60;;;;;;4980946;28;20041;-83
2020/12/09 10:27:06;;;;;;;70.67;38.90;;;7.90;80.50;;;;;;4996758;28;20108;-82
2020/12/09 10:29:32;;;;;;;66.73;36.90;;;7.90;80.40;;;;;;4997319;28;20037;-82
2020/12/09 10:31:58;;;;;;;63.73;35.60;;;7.90;80.70;;;;;;5013035;28;20042;-84
2020/12/09 10:34:44;;;;;;;61.07;36.20;;;7.80;80.60;;;;;;5011076;28;20116;-83
2020/12/09 10:37:09;;;;;;;67.33;37.97;;;7.90;80.40;;;;;;4993724;28;20029;-83
2020/12/09 10:39:36;;;;;;;67.17;35.33;;;7.90;80.20;;;;;;4964517;28;20036;-83
2020/12/09 10:42:07;;;;;;;61.40;35.43;;;7.90;80.50;;;;;;4979798;28;20084;-84
2020/12/09 10:44:33;;;;;;;58.87;34.23;;;7.90;80.30;;;;;;4988320;28;20433;-83
2020/12/09 10:47:01;;;;;;;57.27;34.87;;;7.90;80.40;;;;;;4998962;28;20045;-83
2020/12/09 10:49:32;;;;;;;74.40;37.77;;;7.90;80.30;;;;;;4983626;28;20037;-82
2020/12/09 10:51:58;;;;;;;59.83;33.07;;;7.90;80.30;;;;;;5003918;28;20052;-82
2020/12/09 10:54:24;;;;;;;62.50;37.40;;;7.90;80.20;;;;;;4999757;28;20057;-83
2020/12/09 10:56:50;;;;;;;68.73;35.20;;;7.90;80.00;;;;;;4970334;28;20049;-83
2020/12/09 10:59:16;;;;;;;69.33;36.57;;;8.00;80.00;;;;;;4969676;28;20070;-83
2020/12/09 11:01:43;;;;;;;63.43;36.83;;;8.00;80.70;;;;;;4985927;28;20458;-83
2020/12/09 11:04:28;;;;;;;59.67;34.60;;;8.10;79.70;;;;;;4989938;28;20135;-82
2020/12/09 11:06:54;;;;;;;66.13;37.00;;;8.10;80.00;;;;;;5020030;28;20469;-83
2020/12/09 11:09:20;;;;;;;60.90;34.60;;;8.20;79.90;;;;;;5016950;28;20069;-83
2020/12/09 11:11:46;;;;;;;54.07;33.83;;;8.20;79.90;;;;;;4982251;28;20466;-83
2020/12/09 11:14:41;;;;;;;57.57;34.43;;;8.30;79.60;;;;;;4975575;28;20045;-83
2020/12/09 11:17:07;;;;;;;62.10;34.17;;;8.20;79.60;;;;;;4999278;28;20038;-83
2020/12/09 11:19:52;;;;;;;60.13;33.83;;;8.30;79.70;;;;;;5003438;28;20048;-84
2020/12/09 11:22:18;;;;;;;55.97;32.43;;;8.50;79.90;;;;;;5010415;28;20042;-82
2020/12/09 11:24:44;;;;;;;50.03;31.70;;;8.40;80.30;;;;;;4999747;28;20137;-85
2020/12/09 11:27:10;;;;;;;53.10;31.93;;;8.50;80.10;;;;;;4994515;28;20041;-83
2020/12/09 11:29:37;;;;;;;48.43;31.67;;;8.50;79.20;;;;;;5011972;28;20041;-83
2020/12/09 11:32:03;;;;;;;52.07;34.07;;;8.50;79.00;;;;;;4996052;28;20442;-84
2020/12/09 11:34:49;;;;;;;53.93;33.00;;;8.40;78.20;;;;;;4999982;28;20057;-84
2020/12/09 11:37:14;;;;;;;58.73;36.27;;;8.40;78.70;;;;;;4996877;28;20037;-83
2020/12/09 11:40:00;;;;;;;52.30;33.00;;;8.40;78.80;;;;;;4991487;28;20144;-83
2020/12/09 11:42:26;;;;;;;52.90;34.47;;;8.40;78.70;;;;;;5002617;28;20057;-83
2020/12/09 11:44:53;;;;;;;55.57;32.37;;;8.40;79.00;;;;;;4957580;28;20101;-84
2020/12/09 11:47:18;;;;;;;51.27;31.13;;;8.40;79.00;;;;;;4994953;28;20042;-83
2020/12/09 11:49:45;;;;;;;54.47;32.23;;;8.50;79.30;;;;;;4967022;28;20042;-87
2020/12/09 11:52:30;;;;;;;51.23;34.10;;;8.60;79.20;;;;;;4984479;28;20042;-83
2020/12/09 11:54:56;;;;;;;53.10;33.90;;;8.60;78.80;;;;;;4998425;28;20403;-83
2020/12/09 11:57:22;;;;;;;51.37;33.57;;;8.60;78.30;;;;;;4979359;28;20031;-84
2020/12/09 11:59:48;;;;;;;47.67;30.03;;;8.60;78.40;;;;;;4993463;28;20101;-83
2020/12/09 12:02:14;;;;;;;48.90;31.80;;;8.70;78.10;;;;;;4966485;28;20041;-83
2020/12/09 12:05:01;;;;;;;46.70;30.00;;;8.70;77.80;;;;;;4970695;28;20104;-84
2020/12/09 12:07:27;;;;;;;47.93;30.77;;;8.60;78.70;;;;;;4995962;28;20034;-84
2020/12/09 12:09:53;;;;;;;47.27;28.27;;;8.60;77.40;;;;;;4969040;28;20092;-84
2020/12/09 12:12:19;;;;;;;47.73;30.23;;;8.50;77.70;;;;;;4996541;28;20070;-84
2020/12/09 12:14:46;;;;;;;47.10;29.87;;;8.50;77.70;;;;;;4994975;28;20052;-83
2020/12/09 12:17:12;;;;;;;49.63;30.27;;;8.50;77.50;;;;;;4977898;28;20044;-83
2020/12/09 12:19:42;;;;;;;45.57;29.03;;;8.80;77.90;;;;;;4977201;28;20046;-84
2020/12/09 12:22:08;;;;;;;46.27;29.80;;;8.50;77.70;;;;;;4997409;28;20372;-83
2020/12/09 12:24:34;;;;;;;48.73;30.13;;;8.50;77.40;;;;;;5012417;28;20093;-84
2020/12/09 12:26:59;;;;;;;51.27;32.33;;;8.40;77.80;;;;;;4980361;28;20065;-82
2020/12/09 12:29:25;;;;;;;46.20;29.27;;;8.40;76.90;;;;;;4998548;28;20038;-81
2020/12/09 12:31:51;;;;;;;47.03;28.87;;;8.40;76.80;;;;;;4963960;28;20034;-83
2020/12/09 12:34:38;;;;;;;50.60;30.37;;;8.30;77.20;;;;;;5009176;28;20053;-84
2020/12/09 12:37:23;;;;;;;50.60;31.27;;;8.40;77.60;;;;;;4969835;28;20482;-82
2020/12/09 12:40:09;;;;;;;53.90;33.00;;;8.30;77.60;;;;;;4963793;28;20054;-82
2020/12/09 12:42:55;;;;;;;48.47;31.23;;;8.30;76.80;;;;;;4965152;28;20426;-83
2020/12/09 12:45:22;;;;;;;49.67;30.50;;;8.30;77.50;;;;;;4961698;28;20053;-82
2020/12/09 12:48:08;;;;;;;44.97;27.60;;;8.30;77.60;;;;;;4967884;28;20069;-83
2020/12/09 12:50:34;;;;;;;47.17;29.73;;;8.20;77.50;;;;;;4975515;28;20038;-83
2020/12/09 12:52:59;;;;;;;49.07;30.03;;;8.30;77.50;;;;;;4989529;28;20050;-81
2020/12/09 12:55:25;;;;;;;48.73;29.50;;;8.20;77.20;;;;;;4973243;28;20042;-83
2020/12/09 12:58:12;;;;;;;43.73;28.00;;;8.30;77.60;;;;;;4965076;28;20113;-83
2020/12/09 13:00:38;;;;;;;45.83;28.77;;;8.30;77.80;;;;;;4983289;28;20038;-81
2020/12/09 13:03:24;;;;;;;44.10;28.97;;;8.40;77.60;;;;;;4975936;28;20053;-83
2020/12/09 13:05:49;;;;;;;50.37;29.77;;;8.30;77.60;;;;;;4977636;28;20034;-83